createdAt,value
2022-08-05T00:00:50.368Z,18.64
2022-08-05T00:03:20.692Z,18.55
2022-08-05T00:06:05.341Z,18.57
2022-08-05T00:08:45.324Z,18.51
2022-08-05T00:11:30.246Z,18.50
2022-08-05T00:14:12.999Z,18.52
2022-08-05T00:16:53.866Z,18.53
2022-08-05T00:19:33.595Z,18.52
2022-08-05T00:22:17.955Z,18.44
2022-08-05T00:24:55.020Z,18.44
2022-08-05T00:27:35.674Z,18.45
2022-08-05T00:30:11.528Z,18.35
2022-08-05T00:32:42.614Z,18.33
2022-08-05T00:35:13.670Z,18.30
2022-08-05T00:37:52.615Z,18.21
2022-08-05T00:40:29.706Z,18.15
2022-08-05T00:43:01.699Z,18.12
2022-08-05T00:45:43.064Z,18.10
2022-08-05T00:48:15.837Z,18.08
2022-08-05T00:50:46.899Z,18.13
2022-08-05T00:54:01.063Z,18.13
2022-08-05T00:56:12.068Z,18.10
2022-08-05T00:58:42.504Z,18.10
2022-08-05T01:01:24.943Z,18.11
2022-08-05T01:04:14.351Z,18.13
2022-08-05T01:06:49.079Z,18.11
2022-08-05T01:09:22.690Z,18.06
2022-08-05T01:12:01.902Z,18.05
2022-08-05T01:14:44.584Z,18.03
2022-08-05T01:17:24.114Z,18.11
2022-08-05T01:20:02.903Z,18.10
2022-08-05T01:22:48.204Z,18.12
2022-08-05T01:25:41.702Z,18.08
2022-08-05T01:28:36.370Z,18.04
2022-08-05T01:31:12.498Z,18.01
2022-08-05T01:33:53.482Z,17.97
2022-08-05T01:36:28.875Z,17.97
2022-08-05T01:39:01.299Z,17.98
2022-08-05T01:41:35.772Z,18.01
2022-08-05T01:44:14.077Z,17.96
2022-08-05T01:46:46.791Z,17.98
2022-08-05T01:49:24.885Z,17.92
2022-08-05T01:52:01.030Z,17.88
2022-08-05T01:54:46.129Z,17.83
2022-08-05T01:58:09.431Z,17.81
2022-08-05T02:00:17.120Z,17.87
2022-08-05T02:02:55.074Z,17.87
2022-08-05T02:05:30.504Z,17.86
2022-08-05T02:08:04.744Z,17.83
2022-08-05T02:10:42.756Z,17.79
2022-08-05T02:13:17.551Z,17.76
2022-08-05T02:15:58.439Z,17.73
2022-08-05T02:18:35.644Z,17.66
2022-08-05T02:21:14.802Z,17.59
2022-08-05T02:23:48.515Z,17.60
2022-08-05T02:26:28.815Z,17.64
2022-08-05T02:28:59.987Z,17.57
2022-08-05T02:31:38.884Z,17.54
2022-08-05T02:34:14.424Z,17.50
2022-08-05T02:36:50.051Z,17.46
2022-08-05T02:39:23.786Z,17.45
2022-08-05T02:42:00.486Z,17.45
2022-08-05T02:44:34.520Z,17.42
2022-08-05T02:47:09.064Z,17.42
2022-08-05T02:49:43.361Z,17.36
2022-08-05T02:52:30.132Z,17.35
2022-08-05T02:55:05.404Z,17.33
2022-08-05T02:58:10.178Z,17.35
2022-08-05T03:00:29.799Z,17.25
2022-08-05T03:03:10.274Z,17.19
2022-08-05T03:06:55.504Z,17.18
2022-08-05T03:08:33.827Z,17.13
2022-08-05T03:11:54.362Z,17.10
2022-08-05T03:14:03.322Z,17.05
2022-08-05T03:16:35.829Z,17.04
2022-08-05T03:19:17.080Z,17.00
2022-08-05T03:21:58.945Z,16.90
2022-08-05T03:24:31.010Z,16.89
2022-08-05T03:27:02.072Z,16.86
2022-08-05T03:29:44.647Z,16.81
2022-08-05T03:32:30.839Z,16.81
2022-08-05T03:35:05.581Z,16.80
2022-08-05T03:37:46.244Z,16.80
2022-08-05T03:40:31.257Z,16.68
2022-08-05T03:43:58.722Z,16.68
2022-08-05T03:45:58.530Z,16.64
2022-08-05T03:48:29.659Z,16.60
2022-08-05T03:52:38.779Z,16.62
2022-08-05T03:55:54.744Z,16.57
2022-08-05T03:57:16.713Z,16.54
2022-08-05T03:59:56.249Z,16.50
2022-08-05T04:02:37.635Z,16.46
2022-08-05T04:05:12.182Z,16.45
2022-08-05T04:07:57.760Z,16.44
2022-08-05T04:10:37.546Z,16.40
2022-08-05T04:13:12.096Z,16.38
2022-08-05T04:15:52.891Z,16.35
2022-08-05T04:18:34.529Z,16.36
2022-08-05T04:21:05.225Z,16.33
2022-08-05T04:23:57.318Z,16.30
2022-08-05T04:26:32.364Z,16.25
2022-08-05T04:29:07.476Z,16.20
2022-08-05T04:31:38.647Z,16.19
2022-08-05T04:34:31.247Z,16.13
2022-08-05T04:37:03.091Z,16.10
2022-08-05T04:39:36.103Z,16.07
2022-08-05T04:42:06.690Z,16.05
2022-08-05T04:44:38.012Z,16.01
2022-08-05T04:47:12.796Z,16.00
2022-08-05T04:50:02.918Z,15.99
2022-08-05T04:52:37.014Z,16.00
2022-08-05T04:55:14.612Z,16.00
2022-08-05T04:57:51.618Z,16.03
2022-08-05T05:00:27.618Z,16.07
2022-08-05T05:03:03.703Z,16.10
2022-08-05T05:05:34.737Z,16.10
2022-08-05T05:08:30.466Z,16.13
2022-08-05T05:11:06.505Z,16.18
2022-08-05T05:13:43.194Z,16.21
2022-08-05T05:16:15.496Z,16.26
2022-08-05T05:19:16.427Z,16.33
2022-08-05T05:21:40.445Z,16.46
2022-08-05T05:24:10.683Z,16.69
2022-08-05T05:26:43.661Z,16.84
2022-08-05T05:29:16.946Z,17.00
2022-08-05T05:31:51.032Z,17.16
2022-08-05T05:34:27.058Z,17.33
2022-08-05T05:36:58.294Z,17.51
2022-08-05T05:39:34.379Z,17.72
2022-08-05T05:42:08.225Z,17.92
2022-08-05T05:44:43.115Z,18.07
2022-08-05T05:47:21.489Z,18.24
2022-08-05T05:50:01.530Z,18.41
2022-08-05T05:52:37.960Z,18.47
2022-08-05T05:55:13.848Z,18.64
2022-08-05T05:57:52.715Z,18.57
2022-08-05T06:00:31.438Z,18.91
2022-08-05T06:03:40.239Z,18.92
2022-08-05T06:05:56.938Z,18.84
2022-08-05T06:08:32.284Z,18.83
2022-08-05T06:11:04.174Z,19.12
2022-08-05T06:13:40.771Z,19.03
2022-08-05T06:16:30.849Z,19.15
2022-08-05T06:19:08.164Z,19.33
2022-08-05T06:21:42.959Z,19.54
2022-08-05T06:24:25.705Z,19.60
2022-08-05T06:26:57.890Z,19.56
2022-08-05T06:29:52.107Z,19.88
2022-08-05T06:32:34.086Z,20.04
2022-08-05T06:35:05.955Z,20.05
2022-08-05T06:37:57.778Z,20.12
2022-08-05T06:40:32.648Z,20.47
2022-08-05T06:43:51.669Z,20.90
2022-08-05T06:46:18.281Z,20.88
2022-08-05T06:48:56.742Z,21.18
2022-08-05T06:51:36.974Z,21.43
2022-08-05T06:54:18.044Z,21.24
2022-08-05T06:56:55.055Z,21.27
2022-08-05T06:59:42.338Z,21.56
2022-08-05T07:02:33.696Z,21.63
2022-08-05T07:05:14.206Z,21.59
2022-08-05T07:07:50.680Z,20.90
2022-08-05T07:10:32.213Z,21.15
2022-08-05T07:13:17.124Z,21.21
2022-08-05T07:17:56.513Z,21.64
2022-08-05T07:19:16.018Z,22.08
2022-08-05T07:22:05.679Z,22.07
2022-08-05T07:24:44.042Z,21.67
2022-08-05T07:27:23.198Z,21.70
2022-08-05T07:30:22.083Z,21.83
2022-08-05T07:32:54.233Z,21.71
2022-08-05T07:36:04.527Z,21.75
2022-08-05T07:38:32.054Z,20.88
2022-08-05T07:41:35.183Z,21.04
2022-08-05T07:43:56.785Z,21.01
2022-08-05T07:46:28.218Z,20.96
2022-08-05T07:49:05.391Z,21.02
2022-08-05T07:51:53.452Z,21.09
2022-08-05T07:54:31.002Z,20.58
2022-08-05T07:57:22.861Z,20.51
2022-08-05T07:59:57.291Z,20.11
2022-08-05T08:02:31.347Z,20.41
2022-08-05T08:05:19.730Z,20.24
2022-08-05T08:08:00.146Z,20.07
2022-08-05T08:10:31.053Z,19.91
2022-08-05T08:13:04.424Z,19.63
2022-08-05T08:16:33.271Z,19.30
2022-08-05T08:18:26.305Z,19.46
2022-08-05T08:21:03.393Z,19.45
2022-08-05T08:24:02.683Z,19.49
2022-08-05T08:26:30.987Z,19.35
2022-08-05T08:29:22.187Z,19.24
2022-08-05T08:31:56.745Z,19.32
2022-08-05T08:34:33.415Z,19.27
2022-08-05T08:37:09.820Z,19.12
2022-08-05T08:39:44.311Z,19.03
2022-08-05T08:42:34.127Z,19.01
2022-08-05T08:45:40.817Z,19.03
2022-08-05T08:48:41.626Z,18.94
2022-08-05T08:52:04.306Z,18.66
2022-08-05T08:54:36.555Z,18.63
2022-08-05T08:57:48.206Z,18.61
2022-08-05T09:00:33.624Z,18.68
2022-08-05T09:03:24.784Z,18.58
2022-08-05T09:06:21.115Z,18.69
2022-08-05T09:08:59.438Z,18.65
2022-08-05T09:11:51.202Z,18.57
2022-08-05T09:14:57.810Z,18.55
2022-08-05T09:17:43.128Z,18.71
2022-08-05T09:20:50.473Z,18.78
2022-08-05T09:23:27.166Z,18.90
2022-08-05T09:26:20.495Z,18.88
2022-08-05T09:28:56.541Z,18.78
2022-08-05T09:32:39.773Z,18.76
2022-08-05T09:34:48.954Z,18.77
2022-08-05T09:38:16.648Z,18.84
2022-08-05T09:40:34.007Z,18.78
2022-08-05T09:43:08.380Z,18.77
2022-08-05T09:46:07.169Z,18.74
2022-08-05T09:49:07.024Z,18.61
2022-08-05T09:51:39.924Z,18.82
2022-08-05T09:54:13.588Z,18.87
2022-08-05T09:56:51.433Z,18.77
2022-08-05T09:59:21.850Z,18.83
2022-08-05T10:01:57.810Z,18.84
2022-08-05T10:04:39.879Z,18.80
2022-08-05T10:07:19.975Z,18.79
2022-08-05T10:10:13.781Z,18.76
2022-08-05T10:12:51.802Z,18.77
2022-08-05T10:15:26.117Z,18.81
2022-08-05T10:18:12.636Z,18.91
2022-08-05T10:20:48.503Z,18.90
2022-08-05T10:23:55.517Z,18.82
2022-08-05T10:26:14.900Z,18.94
2022-08-05T10:28:46.769Z,19.00
2022-08-05T10:32:50.892Z,19.04
2022-08-05T10:34:11.033Z,18.99
2022-08-05T10:36:45.136Z,19.04
2022-08-05T10:39:24.436Z,19.04
2022-08-05T10:42:05.119Z,19.13
2022-08-05T10:44:35.951Z,19.35
2022-08-05T10:47:26.614Z,19.45
2022-08-05T10:50:32.174Z,19.72
2022-08-05T10:53:05.925Z,19.67
2022-08-05T10:56:03.477Z,19.64
2022-08-05T10:58:48.032Z,19.89
2022-08-05T11:01:28.132Z,19.89
2022-08-05T11:04:12.657Z,19.97
2022-08-05T11:07:07.482Z,20.19
2022-08-05T11:09:48.517Z,20.49
2022-08-05T11:12:54.336Z,20.57
2022-08-05T11:16:00.276Z,20.96
2022-08-05T11:18:32.469Z,21.13
2022-08-05T11:21:11.573Z,21.30
2022-08-05T11:24:04.527Z,20.84
2022-08-05T11:26:40.461Z,20.65
2022-08-05T11:29:43.157Z,20.75
2022-08-05T11:32:29.773Z,21.32
2022-08-05T11:35:00.863Z,21.05
2022-08-05T11:38:36.506Z,20.85
2022-08-05T11:41:36.858Z,20.97
2022-08-05T11:44:05.755Z,21.18
2022-08-05T11:47:09.806Z,20.98
2022-08-05T11:49:36.473Z,20.98
2022-08-05T11:52:08.712Z,21.21
2022-08-05T11:54:43.544Z,21.13
2022-08-05T11:58:08.351Z,20.83
2022-08-05T12:00:31.031Z,21.72
2022-08-05T12:03:23.775Z,21.27
2022-08-05T12:06:02.873Z,21.95
2022-08-05T12:08:33.567Z,21.80
2022-08-05T12:11:07.298Z,22.27
2022-08-05T12:13:49.439Z,22.43
2022-08-05T12:16:29.564Z,22.16
2022-08-05T12:19:03.490Z,22.23
2022-08-05T12:21:46.944Z,22.35
2022-08-05T12:24:21.114Z,22.76
2022-08-05T12:26:57.488Z,22.66
2022-08-05T12:29:37.957Z,23.30
2022-08-05T12:32:12.474Z,23.04
2022-08-05T12:34:46.075Z,23.39
2022-08-05T12:37:21.628Z,22.15
2022-08-05T12:39:56.229Z,22.66
2022-08-05T12:42:33.833Z,23.22
2022-08-05T12:45:09.901Z,22.76
2022-08-05T12:47:43.612Z,22.79
2022-08-05T12:50:34.143Z,22.84
2022-08-05T12:53:04.629Z,21.70
2022-08-05T12:55:43.358Z,21.58
2022-08-05T12:58:52.494Z,21.80
2022-08-05T13:02:03.463Z,22.19
2022-08-05T13:04:09.861Z,21.91
2022-08-05T13:06:51.648Z,22.35
2022-08-05T13:09:28.102Z,22.69
2022-08-05T13:12:06.436Z,23.34
2022-08-05T13:14:44.421Z,23.28
2022-08-05T13:17:25.187Z,23.41
2022-08-05T13:20:04.517Z,23.17
2022-08-05T13:22:40.593Z,22.41
2022-08-05T13:25:19.456Z,22.18
2022-08-05T13:27:54.694Z,22.05
2022-08-05T13:30:34.063Z,22.31
2022-08-05T13:33:05.157Z,22.21
2022-08-05T13:35:43.327Z,21.84
2022-08-05T13:38:30.669Z,21.62
2022-08-05T13:41:06.669Z,21.39
2022-08-05T13:43:45.618Z,21.38
2022-08-05T13:46:51.026Z,21.33
2022-08-05T13:49:16.487Z,20.96
2022-08-05T13:51:47.100Z,20.99
2022-08-05T13:54:24.837Z,21.44
2022-08-05T13:56:55.670Z,21.52
2022-08-05T13:59:30.594Z,21.19
2022-08-05T14:02:02.175Z,21.05
2022-08-05T14:04:50.036Z,20.67
2022-08-05T14:07:56.309Z,20.51
2022-08-05T14:10:19.097Z,20.43
2022-08-05T14:13:00.867Z,20.35
2022-08-05T14:16:04.664Z,20.55
2022-08-05T14:18:26.022Z,20.49
2022-08-05T14:20:56.156Z,20.62
2022-08-05T14:23:29.678Z,20.55
2022-08-05T14:26:09.670Z,20.53
2022-08-05T14:28:59.640Z,20.32
2022-08-05T14:32:03.085Z,20.21
2022-08-05T14:34:23.656Z,20.11
2022-08-05T14:36:55.583Z,20.19
2022-08-05T14:39:26.764Z,20.54
2022-08-05T14:42:19.357Z,20.58
2022-08-05T14:44:49.981Z,20.67
2022-08-05T14:47:37.041Z,20.26
2022-08-05T14:50:17.461Z,20.02
2022-08-05T14:52:56.889Z,20.04
2022-08-05T14:55:39.130Z,20.12
2022-08-05T14:58:14.178Z,19.73
2022-08-05T15:00:58.002Z,20.15
2022-08-05T15:03:33.738Z,20.19
2022-08-05T15:06:07.707Z,20.40
2022-08-05T15:08:59.777Z,19.99
2022-08-05T15:11:53.105Z,20.23
2022-08-05T15:14:34.907Z,20.05
2022-08-05T15:17:46.549Z,20.24
2022-08-05T15:20:07.471Z,19.91
2022-08-05T15:22:39.920Z,20.15
2022-08-05T15:25:14.305Z,19.92
2022-08-05T15:27:52.326Z,19.98
2022-08-05T15:30:29.009Z,19.75
2022-08-05T15:32:59.406Z,20.01
2022-08-05T15:35:36.325Z,20.12
2022-08-05T15:38:35.004Z,19.77
2022-08-05T15:41:22.623Z,20.19
2022-08-05T15:43:58.887Z,20.00
2022-08-05T15:46:35.169Z,19.97
2022-08-05T15:49:09.852Z,20.02
2022-08-05T15:52:04.402Z,19.95
2022-08-05T15:54:34.935Z,20.39
2022-08-05T15:57:08.205Z,20.14
2022-08-05T15:59:38.893Z,20.15
2022-08-05T16:02:14.757Z,20.08
2022-08-05T16:04:50.104Z,19.69
2022-08-05T16:07:22.779Z,19.95
2022-08-05T16:09:54.096Z,19.72
2022-08-05T16:12:25.470Z,19.46
2022-08-05T16:14:56.010Z,19.49
2022-08-05T16:17:30.522Z,19.53
2022-08-05T16:20:11.694Z,19.65
2022-08-05T16:22:42.853Z,19.62
2022-08-05T16:25:13.499Z,19.54
2022-08-05T16:28:01.039Z,19.39
2022-08-05T16:30:34.376Z,19.27
2022-08-05T16:33:08.854Z,19.17
2022-08-05T16:35:42.163Z,18.66
2022-08-05T16:38:23.841Z,18.88
2022-08-05T16:42:12.695Z,18.87
2022-08-05T16:43:58.459Z,18.78
2022-08-05T16:46:29.499Z,18.61
2022-08-05T16:49:02.795Z,18.75
2022-08-05T16:51:42.859Z,18.64
2022-08-05T16:54:28.976Z,18.45
2022-08-05T16:57:02.043Z,18.28
2022-08-05T16:59:32.727Z,18.32
2022-08-05T17:02:23.046Z,18.14
2022-08-05T17:04:56.340Z,17.95
2022-08-05T17:07:39.329Z,17.91
2022-08-05T17:10:16.687Z,17.84
2022-08-05T17:12:51.712Z,17.60
2022-08-05T17:15:22.689Z,17.69
2022-08-05T17:17:55.433Z,17.67
2022-08-05T17:20:31.980Z,17.72
2022-08-05T17:23:02.261Z,17.74
2022-08-05T17:25:33.959Z,17.61
2022-08-05T17:28:10.509Z,17.61
2022-08-05T17:30:50.545Z,17.52
2022-08-05T17:33:23.211Z,17.68
2022-08-05T17:36:07.662Z,17.63
2022-08-05T17:38:47.313Z,17.54
2022-08-05T17:42:16.822Z,17.45
2022-08-05T17:44:16.569Z,17.36
2022-08-05T17:46:47.310Z,17.48
2022-08-05T17:49:18.100Z,17.52
2022-08-05T17:51:51.596Z,17.37
2022-08-05T17:54:23.413Z,17.44
2022-08-05T17:56:56.842Z,17.35
2022-08-05T17:59:32.824Z,17.48
2022-08-05T18:02:10.698Z,17.53
2022-08-05T18:04:53.339Z,17.45
2022-08-05T18:07:32.974Z,17.35
2022-08-05T18:10:21.592Z,17.20
2022-08-05T18:12:52.065Z,17.21
2022-08-05T18:15:22.188Z,17.21
2022-08-05T18:18:01.698Z,17.28
2022-08-05T18:20:34.903Z,17.14
2022-08-05T18:23:09.106Z,17.14
2022-08-05T18:25:45.288Z,17.10
2022-08-05T18:28:17.869Z,17.00
2022-08-05T18:30:55.662Z,17.03
2022-08-05T18:33:37.535Z,16.95
2022-08-05T18:36:19.125Z,16.86
2022-08-05T18:38:52.575Z,16.72
2022-08-05T18:41:56.780Z,16.64
2022-08-05T18:44:34.931Z,16.65
2022-08-05T18:47:09.714Z,16.56
2022-08-05T18:49:58.227Z,16.52
2022-08-05T18:52:38.309Z,16.46
2022-08-05T18:55:12.888Z,16.41
2022-08-05T18:57:52.854Z,16.40
2022-08-05T19:00:29.068Z,16.40
2022-08-05T19:03:04.764Z,16.31
2022-08-05T19:06:13.369Z,16.31
2022-08-05T19:08:30.549Z,16.20
2022-08-05T19:11:05.092Z,16.14
2022-08-05T19:13:39.027Z,16.07
2022-08-05T19:16:25.003Z,16.07
2022-08-05T19:18:59.611Z,16.01
2022-08-05T19:21:34.576Z,15.99
2022-08-05T19:24:12.516Z,15.92
2022-08-05T19:26:55.510Z,15.90
2022-08-05T19:29:35.903Z,15.86
2022-08-05T19:32:11.573Z,15.81
2022-08-05T19:34:42.323Z,15.75
2022-08-05T19:37:35.324Z,15.74
2022-08-05T19:40:17.399Z,15.69
2022-08-05T19:43:04.788Z,15.62
2022-08-05T19:45:37.027Z,15.55
2022-08-05T19:48:14.416Z,15.54
2022-08-05T19:50:45.370Z,15.47
2022-08-05T19:53:15.743Z,15.43
2022-08-05T19:56:12.558Z,15.40
2022-08-05T19:58:53.553Z,15.35
2022-08-05T20:01:28.434Z,15.28
2022-08-05T20:03:59.746Z,15.29
2022-08-05T20:06:37.560Z,15.18
2022-08-05T20:09:16.014Z,15.14
2022-08-05T20:11:48.249Z,15.12
2022-08-05T20:14:26.876Z,15.09
2022-08-05T20:16:59.505Z,15.04
2022-08-05T20:19:36.137Z,14.98
2022-08-05T20:22:09.625Z,14.99
2022-08-05T20:24:40.052Z,14.92
2022-08-05T20:27:11.561Z,14.93
2022-08-05T20:29:57.691Z,14.85
2022-08-05T20:32:30.953Z,14.78
2022-08-05T20:35:03.690Z,14.78
2022-08-05T20:38:06.362Z,14.77
2022-08-05T20:40:25.011Z,14.73
2022-08-05T20:43:00.158Z,14.71
2022-08-05T20:45:56.637Z,14.67
2022-08-05T20:48:23.727Z,14.60
2022-08-05T20:50:57.001Z,14.55
2022-08-05T20:53:36.622Z,14.53
2022-08-05T20:56:12.330Z,14.52
2022-08-05T20:58:43.752Z,14.47
2022-08-05T21:01:16.932Z,14.39
2022-08-05T21:03:48.272Z,14.33
2022-08-05T21:06:27.721Z,14.28
2022-08-05T21:09:00.365Z,14.25
2022-08-05T21:12:06.578Z,14.25
2022-08-05T21:14:20.933Z,14.22
2022-08-05T21:17:00.154Z,14.17
2022-08-05T21:19:47.067Z,14.14
2022-08-05T21:22:23.941Z,14.07
2022-08-05T21:24:59.688Z,14.05
2022-08-05T21:27:38.683Z,14.00
2022-08-05T21:30:17.316Z,13.97
2022-08-05T21:32:51.059Z,13.92
2022-08-05T21:35:29.833Z,13.90
2022-08-05T21:38:01.260Z,13.84
2022-08-05T21:40:31.873Z,13.81
2022-08-05T21:43:05.634Z,13.80
2022-08-05T21:45:51.843Z,13.75
2022-08-05T21:48:31.927Z,13.71
2022-08-05T21:51:04.684Z,13.63
2022-08-05T21:53:59.568Z,13.60
2022-08-05T21:56:33.873Z,13.59
2022-08-05T21:59:08.027Z,13.57
2022-08-05T22:01:54.478Z,13.55
2022-08-05T22:04:27.507Z,13.51
2022-08-05T22:06:59.638Z,13.48
2022-08-05T22:09:46.101Z,13.47
2022-08-05T22:12:17.767Z,13.42
2022-08-05T22:14:49.576Z,13.38
2022-08-05T22:17:21.083Z,13.34
2022-08-05T22:20:13.439Z,13.31
2022-08-05T22:22:57.385Z,13.28
2022-08-05T22:26:09.684Z,13.24
2022-08-05T22:28:32.626Z,13.19
2022-08-05T22:31:05.638Z,13.18
2022-08-05T22:33:57.195Z,13.16
2022-08-05T22:36:32.733Z,13.12
2022-08-05T22:39:04.119Z,13.10
2022-08-05T22:42:09.385Z,13.11
2022-08-05T22:44:31.897Z,13.08
2022-08-05T22:47:05.796Z,13.03
2022-08-05T22:50:20.113Z,13.01
2022-08-05T22:52:34.164Z,12.97
2022-08-05T22:55:19.641Z,12.96
2022-08-05T22:57:55.202Z,12.96
2022-08-05T23:00:26.815Z,12.92
2022-08-05T23:02:59.756Z,12.90
2022-08-05T23:05:36.149Z,12.87
2022-08-05T23:08:09.705Z,12.86
2022-08-05T23:10:43.176Z,12.83
2022-08-05T23:13:13.338Z,12.82
2022-08-05T23:15:43.571Z,12.80
2022-08-05T23:18:20.940Z,12.74
2022-08-05T23:20:56.691Z,12.73
2022-08-05T23:23:33.708Z,12.65
2022-08-05T23:26:05.741Z,12.64
2022-08-05T23:28:36.155Z,12.63
2022-08-05T23:31:17.223Z,12.62
2022-08-05T23:34:05.357Z,12.56
2022-08-05T23:36:39.826Z,12.53
2022-08-05T23:39:32.139Z,12.53
2022-08-05T23:42:14.261Z,12.51
2022-08-05T23:45:00.563Z,12.48
2022-08-05T23:47:33.712Z,12.48
2022-08-05T23:50:04.142Z,12.46
2022-08-05T23:52:50.162Z,12.46
2022-08-05T23:55:30.972Z,12.43
2022-08-05T23:58:01.840Z,12.42
